| time (UTC) | temp F | wind direction | speed MPH | gust MPH | rain 1hr in | rain 24hr in | rain mn in | humidity % | barometer mb |
| 20260507084537 | 39 | 253 | 3.0 | 4.0 | 0.00 | 0.00 | 0.00 | 79 | 1009.8 |
| 20260507083045 | 39 | 252 | 4.0 | 7.0 | 0.00 | 0.00 | 0.00 | 79 | 1009.9 |
| 20260507081547 | 39 | 242 | 5.0 | 7.0 | 0.00 | 0.00 | 0.00 | 79 | 1010.0 |
| 20260507080041 | 39 | 244 | 4.0 | 8.0 | 0.00 | 0.00 | 0.00 | 79 | 1010.0 |
| 20260507074540 | 39 | 239 | 4.0 | 5.0 | 0.00 | 0.00 | 0.00 | 79 | 1010.0 |
| 20260507073052 | 39 | 245 | 3.0 | 5.0 | 0.00 | 0.00 | 0.00 | 80 | 1010.2 |
| 20260507071540 | 39 | 245 | 3.0 | 5.0 | 0.00 | 0.00 | 0.00 | 78 | 1010.2 |
| 20260507070048 | 39 | 245 | 3.0 | 5.0 | 0.00 | 0.00 | 0.00 | 77 | 1010.4 |
| 20260507064604 | 39 | 245 | 4.0 | 5.0 | 0.00 | 0.00 | 0.00 | 78 | 1010.6 |
| 20260507063052 | 39 | 269 | 1.0 | 3.0 | 0.00 | 0.00 | 0.00 | 80 | 1010.6 |
| 20260507061545 | 39 | 269 | 2.0 | 4.0 | 0.00 | 0.00 | 0.00 | 77 | 1010.8 |
| 20260507060045 | 40 | 288 | 3.0 | 5.0 | 0.00 | 0.00 | 0.00 | 74 | 1010.8 |
| 20260507054540 | 40 | 288 | 5.0 | 8.0 | 0.00 | 0.00 | 0.00 | 72 | 1010.9 |
| 20260507053042 | 40 | 286 | 7.0 | 10.0 | 0.00 | 0.00 | 0.00 | 71 | 1011.0 |
| 20260507051539 | 40 | 280 | 6.0 | 11.0 | 0.00 | 0.00 | 0.00 | 70 | 1011.0 |
| 20260507050047 | 40 | 299 | 6.0 | 8.0 | 0.00 | 0.00 | 0.00 | 74 | 1011.2 |
| 20260507044546 | 40 | 284 | 7.0 | 10.0 | 0.00 | 0.00 | 0.00 | 72 | 1011.1 |
| 20260507043041 | 40 | 273 | 4.0 | 8.0 | 0.00 | 0.00 | 0.00 | 72 | 1011.2 |
| 20260507041544 | 40 | 290 | 4.0 | 5.0 | 0.00 | 0.00 | 0.00 | 72 | 1011.2 |
| 20260507040045 | 41 | 288 | 6.0 | 9.0 | 0.00 | 0.00 | 0.00 | 70 | 1011.4 |
| 20260507034557 | 41 | 289 | 8.0 | 10.0 | 0.00 | 0.00 | 0.00 | 68 | 1011.5 |
| 20260507033101 | 41 | 287 | 7.0 | 9.0 | 0.00 | 0.00 | 0.00 | 69 | 1011.5 |
| 20260507031540 | 41 | 282 | 4.0 | 8.0 | 0.00 | 0.00 | 0.00 | 70 | 1011.6 |
| 20260507030038 | 41 | 288 | 5.0 | 8.0 | 0.00 | 0.00 | 0.00 | 70 | 1011.6 |
| 20260507024553 | 41 | 278 | 5.0 | 7.0 | 0.00 | 0.00 | 0.00 | 67 | 1011.6 |
| 20260507023043 | 42 | 281 | 7.0 | 9.0 | 0.00 | 0.00 | 0.00 | 67 | 1011.6 |
| 20260507021544 | 42 | 280 | 9.0 | 12.0 | 0.00 | 0.00 | 0.00 | 62 | 1011.6 |
| 20260507020040 | 42 | 298 | 7.0 | 10.0 | 0.00 | 0.00 | 0.00 | 65 | 1011.5 |
| 20260507014546 | 42 | 300 | 9.0 | 11.0 | 0.00 | 0.00 | 0.00 | 63 | 1011.6 |
| 20260507013043 | 42 | 271 | 10.0 | 14.0 | 0.00 | 0.00 | 0.00 | 62 | 1011.6 |
| 20260507011547 | 42 | 280 | 8.0 | 12.0 | 0.00 | 0.00 | 0.00 | 66 | 1011.4 |
| 20260507010045 | 42 | 282 | 13.0 | 18.0 | 0.00 | 0.00 | 0.00 | 62 | 1011.4 |
| 20260507004541 | 43 | 281 | 13.0 | 20.0 | 0.00 | 0.00 | 0.00 | 63 | 1011.4 |
| 20260507003038 | 43 | 281 | 12.0 | 18.0 | 0.00 | 0.00 | 0.00 | 64 | 1011.4 |
| 20260507001605 | 43 | 284 | 14.0 | 19.0 | 0.00 | 0.00 | 0.00 | 62 | 1011.4 |
| 20260507000044 | 43 | 278 | 13.0 | 22.0 | 0.00 | 0.00 | 0.00 | 62 | 1011.4 |
| 20260506234552 | 43 | 269 | 14.0 | 20.0 | 0.00 | 0.00 | 0.00 | 62 | 1011.4 |
| 20260506233042 | 43 | 275 | 13.0 | 21.0 | 0.00 | 0.00 | 0.00 | 62 | 1011.5 |
| 20260506231543 | 43 | 289 | 15.0 | 19.0 | 0.00 | 0.00 | 0.00 | 63 | 1011.5 |
| 20260506230038 | 42 | 277 | 14.0 | 23.0 | 0.00 | 0.00 | 0.00 | 64 | 1011.5 |
| 20260506224547 | 42 | 286 | 16.0 | 20.0 | 0.00 | 0.00 | 0.00 | 62 | 1011.5 |
| 20260506223043 | 42 | 270 | 15.0 | 20.0 | 0.00 | 0.00 | 0.00 | 63 | 1011.5 |
| 20260506221546 | 42 | 290 | 15.0 | 20.0 | 0.00 | 0.00 | 0.00 | 61 | 1011.5 |
| 20260506220051 | 42 | 290 | 16.0 | 21.0 | 0.00 | 0.00 | 0.00 | 60 | 1011.4 |
| 20260506214543 | 42 | 292 | 15.0 | 19.0 | 0.00 | 0.00 | 0.00 | 62 | 1011.5 |
| 20260506213037 | 42 | 292 | 16.0 | 20.0 | 0.00 | 0.00 | 0.00 | 61 | 1011.4 |
| 20260506211553 | 42 | 308 | 11.0 | 22.0 | 0.00 | 0.00 | 0.00 | 60 | 1011.4 |
| 20260506210044 | 42 | 303 | 17.0 | 22.0 | 0.00 | 0.00 | 0.00 | 59 | 1011.5 |
| 20260506204544 | 41 | 281 | 13.0 | 20.0 | 0.00 | 0.00 | 0.00 | 59 | 1011.7 |
| 20260506203043 | 41 | 360 | 11.0 | 21.0 | 0.00 | 0.00 | 0.00 | 61 | 1011.6 |
| 20260506201543 | 41 | 316 | 9.0 | 16.0 | 0.00 | 0.00 | 0.00 | 61 | 1011.8 |
| 20260506200047 | 40 | 306 | 12.0 | 18.0 | 0.00 | 0.00 | 0.00 | 64 | 1011.9 |
| 20260506194551 | 40 | 295 | 16.0 | 24.0 | 0.00 | 0.00 | 0.00 | 64 | 1011.9 |
| 20260506193050 | 40 | 297 | 16.0 | 22.0 | 0.00 | 0.00 | 0.00 | 62 | 1011.9 |
| 20260506191544 | 40 | 288 | 15.0 | 22.0 | 0.00 | 0.00 | 0.00 | 62 | 1011.9 |
| 20260506190044 | 40 | 300 | 14.0 | 21.0 | 0.00 | 0.00 | 0.00 | 63 | 1011.9 |
| 20260506184542 | 39 | 306 | 14.0 | 24.0 | 0.00 | 0.00 | 0.00 | 65 | 1011.9 |
| 20260506183041 | 40 | 292 | 13.0 | 18.0 | 0.00 | 0.00 | 0.00 | 65 | 1011.9 |
| 20260506181559 | 40 | 293 | 16.0 | 20.0 | 0.00 | 0.00 | 0.00 | 60 | 1011.8 |
| 20260506180044 | 40 | 298 | 12.0 | 17.0 | 0.00 | 0.00 | 0.00 | 64 | 1011.9 |
| 20260506174542 | 40 | 286 | 11.0 | 19.0 | 0.00 | 0.00 | 0.00 | 60 | 1012.1 |
| 20260506173059 | 39 | 316 | 8.0 | 14.0 | 0.00 | 0.00 | 0.00 | 60 | 1012.1 |
| 20260506171551 | 39 | 287 | 12.0 | 18.0 | 0.00 | 0.00 | 0.00 | 60 | 1012.3 |
| 20260506170058 | 39 | 275 | 10.0 | 13.0 | 0.00 | 0.00 | 0.00 | 60 | 1012.2 |
| 20260506164545 | 38 | 303 | 13.0 | 19.0 | 0.00 | 0.00 | 0.00 | 58 | 1012.4 |
| 20260506163043 | 38 | 301 | 14.0 | 19.0 | 0.00 | 0.00 | 0.00 | 60 | 1012.4 |
| 20260506161543 | 38 | 294 | 11.0 | 18.0 | 0.00 | 0.00 | 0.00 | 61 | 1012.5 |
| 20260506160058 | 38 | 281 | 10.0 | 19.0 | 0.00 | 0.00 | 0.00 | 64 | 1012.5 |
| 20260506154548 | 37 | 292 | 13.0 | 17.0 | 0.00 | 0.00 | 0.00 | 66 | 1012.6 |
| 20260506153046 | 37 | 309 | 13.0 | 20.0 | 0.00 | 0.00 | 0.00 | 67 | 1012.5 |
| 20260506151546 | 37 | 300 | 14.0 | 19.0 | 0.00 | 0.00 | 0.00 | 67 | 1012.4 |
| 20260506150049 | 37 | 318 | 13.0 | 19.0 | 0.00 | 0.00 | 0.00 | 71 | 1012.6 |
| 20260506144548 | 37 | 294 | 12.0 | 16.0 | 0.00 | 0.00 | 0.00 | 69 | 1012.5 |
| 20260506143041 | 36 | 319 | 15.0 | 18.0 | 0.00 | 0.00 | 0.00 | 69 | 1012.5 |
| 20260506141539 | 36 | 315 | 13.0 | 16.0 | 0.00 | 0.00 | 0.00 | 69 | 1012.5 |
| 20260506140039 | 36 | 298 | 11.0 | 16.0 | 0.00 | 0.00 | 0.00 | 72 | 1012.4 |
| 20260506134548 | 36 | 308 | 11.0 | 17.0 | 0.00 | 0.00 | 0.00 | 72 | 1012.4 |
| 20260506133039 | 36 | 315 | 13.0 | 18.0 | 0.00 | 0.00 | 0.00 | 71 | 1012.2 |
| 20260506131557 | 36 | 294 | 15.0 | 19.0 | 0.00 | 0.00 | 0.00 | 72 | 1012.3 |
| 20260506130053 | 36 | 298 | 14.0 | 19.0 | 0.00 | 0.00 | 0.00 | 72 | 1012.2 |
| 20260506124542 | 36 | 287 | 13.0 | 18.0 | 0.00 | 0.00 | 0.00 | 71 | 1012.1 |
| 20260506123038 | 35 | 296 | 13.0 | 18.0 | 0.00 | 0.00 | 0.00 | 72 | 1011.8 |
| 20260506121537 | 35 | 306 | 13.0 | 16.0 | 0.00 | 0.00 | 0.00 | 71 | 1011.6 |
| 20260506120044 | 35 | 306 | 12.0 | 17.0 | 0.00 | 0.00 | 0.00 | 74 | 1011.5 |
| 20260506114543 | 35 | 304 | 11.0 | 13.0 | 0.00 | 0.00 | 0.00 | 74 | 1011.4 |
| 20260506113043 | 35 | 303 | 9.0 | 12.0 | 0.00 | 0.00 | 0.00 | 74 | 1011.2 |
| 20260506111539 | 35 | 292 | 8.0 | 11.0 | 0.00 | 0.00 | 0.00 | 73 | 1011.1 |
| 20260506110038 | 35 | 298 | 10.0 | 12.0 | 0.00 | 0.00 | 0.00 | 72 | 1011.1 |
| 20260506104541 | 35 | 316 | 10.0 | 13.0 | 0.00 | 0.00 | 0.00 | 71 | 1010.9 |
| 20260506103045 | 35 | 321 | 12.0 | 16.0 | 0.00 | 0.00 | 0.00 | 71 | 1011.0 |
| 20260506101544 | 35 | 325 | 12.0 | 19.0 | 0.00 | 0.00 | 0.00 | 72 | 1011.0 |
| 20260506100044 | 35 | 323 | 11.0 | 16.0 | 0.00 | 0.00 | 0.00 | 73 | 1010.9 |
| 20260506094551 | 35 | 309 | 12.0 | 16.0 | 0.00 | 0.00 | 0.00 | 71 | 1010.8 |
| 20260506093040 | 36 | 315 | 12.0 | 15.0 | 0.00 | 0.00 | 0.00 | 71 | 1010.7 |
| 20260506091538 | 36 | 329 | 12.0 | 17.0 | 0.00 | 0.00 | 0.00 | 70 | 1010.7 |
| 20260506090044 | 36 | 329 | 13.0 | 17.0 | 0.00 | 0.00 | 0.00 | 70 | 1010.6 |